• Join FlightAware (Why Join?)
  • Login
  • US Flag 
01:37PM EDT


 

Airport Tracker/Info


-or-


 

Live Flight TrackerFlight Track Log ✈ ASQ5685 ✈ 30-Jul-2013 ✈ KATL - KIAD

Flight Track Log - Related Links

Times and Time Zones

All times are in EDT time to prevent confusion due to time zone crossing. See the ASQ5685 flight status page for this flight to view local times or setup timezone preferences in your user account.

Time Position Orientation Groundspeed Altitude Reporting Facility
EDT Latitude Longitude Course Direction KTS MPH feet Rate Location/Type
09:35AM 33.6167 -84.5000 48° Northeast 203 234 3,600  Level Atlanta TRACON
09:36AM 33.6075 -84.5403 255° West 389 448 4,400 1,860 Climbing Atlanta Center
09:37AM 33.8492 -84.1754 73° East  Level Estimated
09:37AM 33.5467 -84.5897 214° Southwest 278 320 6,600  Level Atlanta Center
09:38AM 33.9199 -84.0909 54° Northeast  Level Estimated
09:38AM 33.4717 -84.5642 164° South 302 348 9,100  Level Atlanta Center
09:39AM 33.8997 -83.9735 102° East  Level FlightAware Approximate
09:39AM 33.4553 -84.4644 101° East 289 333 11,200  Level Atlanta Center
09:40AM 33.9711 -83.8898 48° Northeast  Level Estimated
09:40AM 33.4558 -84.3500 90° East 323 372 12,900  Level Atlanta Center
09:41AM 33.4978 -84.2531 63° Northeast 322 371 14,500 1,560 Climbing Atlanta Center
09:42AM 33.5814 -84.1933 31° Northeast 333 383 16,100 1,500 Climbing Atlanta Center
09:43AM 33.6814 -84.1286 28° Northeast 352 405 17,500 1,140 Climbing Atlanta Center
09:44AM 33.7589 -84.0464 41° Northeast 359 413 18,400 960 Climbing Atlanta Center
09:45AM 33.8172 -83.9339 58° Northeast 371 427 19,500 840 Climbing Atlanta Center
09:46AM 33.8756 -83.8161 59° Northeast 396 456 20,100 600 Climbing Atlanta Center
09:47AM 33.9378 -83.7008 57° Northeast 412 474 20,700 600 Climbing Atlanta Center
09:48AM 34.0083 -83.5903 52° Northeast 417 480 21,300 600 Climbing Atlanta Center
09:49AM 34.0808 -83.4744 53° Northeast 428 493 21,900 600 Climbing Atlanta Center
09:50AM 34.1533 -83.3586 53° Northeast 428 493 22,500 600 Climbing Atlanta Center
09:51AM 34.2258 -83.2422 53° Northeast 428 493 23,200 600 Climbing Atlanta Center
09:52AM 34.3000 -83.1233 53° Northeast 433 498 23,800 600 Climbing Atlanta Center
09:53AM 34.3700 -83.0069 54° Northeast 433 498 24,400 600 Climbing Atlanta Center
09:54AM 34.4422 -82.8928 52° Northeast 438 504 25,000 600 Climbing Atlanta Center
09:55AM 34.5142 -82.7758 53° Northeast 433 498 25,600 540 Climbing Atlanta Center
09:56AM 34.5817 -82.6664 53° Northeast 433 498 26,100 600 Climbing Atlanta Center
09:57AM 34.6617 -82.5386 53° Northeast 439 505 26,800 420 Climbing Atlanta Center
09:58AM 34.7372 -82.4161 53° Northeast 439 505 27,000 60 Climbing Atlanta Center
09:59AM 34.8108 -82.2906 54° Northeast 449 517 27,000  Level Atlanta Center
10:00AM 34.8881 -82.1650 53° Northeast 449 517 27,000  Level Atlanta Center
10:01AM 34.9675 -82.0389 52° Northeast 461 531 27,000  Level Atlanta Center
10:02AM 35.0367 -81.9231 54° Northeast 466 536 27,000  Level Atlanta Center
10:03AM 35.1094 -81.7917 56° Northeast 473 544 27,000  Level Atlanta Center
10:04AM 35.1819 -81.6525 57° Northeast 473 544 27,000  Level Atlanta Center
10:05AM 35.2522 -81.5158 58° Northeast 473 544 27,000  Level Atlanta Center
10:06AM 35.3222 -81.3789 58° Northeast 473 544 27,000  Level Atlanta Center
10:07AM 35.3942 -81.2414 57° Northeast 473 544 27,000  Level Atlanta Center
10:08AM 35.4642 -81.1039 58° Northeast 473 544 27,000  Level Atlanta Center
10:09AM 35.5378 -80.9633 57° Northeast 484 557 27,000  Level Atlanta Center
10:10AM 35.6094 -80.8278 57° Northeast 484 557 27,000  Level Atlanta Center
10:11AM 35.6789 -80.6897 58° Northeast 484 557 27,000  Level Atlanta Center
10:12AM 35.7522 -80.5536 56° Northeast 484 557 27,000  Level Atlanta Center
10:13AM 35.8572 -80.3408 59° Northeast 490 564 27,000  Level Washington Center
10:14AM 35.9275 -80.2014 58° Northeast 479 551 27,000  Level Washington Center
10:15AM 35.9992 -80.0697 56° Northeast 479 551 27,000  Level Washington Center
10:16AM 36.0731 -79.9325 56° Northeast 469 540 27,000  Level Washington Center
10:17AM 36.1486 -79.8028 54° Northeast 469 540 27,000  Level Washington Center
10:18AM 36.2311 -79.6528 56° Northeast 477 549 27,000 -300 Level Washington Center
10:19AM 36.3067 -79.5150 56° Northeast 477 549 26,400 -660 Descending Washington Center
10:20AM 36.3753 -79.3972 54° Northeast 477 549 25,700 -660 Descending Washington Center
10:21AM 36.4483 -79.2586 57° Northeast 477 549 25,100 -360 Descending Washington Center
10:22AM 36.5319 -79.1153 54° Northeast 477 549 25,000 -60 Descending Washington Center
10:23AM 36.6067 -78.9842 55° Northeast 464 534 25,000  Level Washington Center
10:24AM 36.6794 -78.8447 57° Northeast 464 534 25,000  Level Washington Center
10:25AM 36.7453 -78.7258 55° Northeast 464 534 25,000  Level Washington Center
10:26AM 36.8172 -78.5989 55° Northeast 459 528 25,000 -540 Level Washington Center
10:27AM 36.9133 -78.5092 37° Northeast 440 506 24,000 -1,200 Descending Washington Center
10:28AM 37.0261 -78.4197 32° Northeast 433 498 22,600 -1,020 Descending Washington Center
10:29AM 37.1239 -78.3400 33° Northeast 428 493 22,000 -360 Descending Washington Center
10:30AM 37.2153 -78.2625 34° Northeast 415 478 22,000  Level Washington Center
10:31AM 37.3047 -78.1872 34° Northeast 402 463 22,000 -300 Level Washington Center
10:32AM 37.3958 -78.1144 32° Northeast 388 447 21,400 -960 Descending Washington Center
10:33AM 37.4894 -78.0311 35° Northeast 388 447 20,200 -1,620 Descending Washington Center
10:34AM 37.5786 -77.9556 34° Northeast 393 452 18,300 -1,740 Descending Washington Center
10:35AM 37.6633 -77.8900 31° Northeast 381 438 16,700 -1,740 Descending Washington Center
10:36AM 37.7397 -77.8214 35° Northeast 360 414 14,800 -1,920 Descending Washington Center
10:37AM 37.8139 -77.7578 34° Northeast 339 390 12,900 -1,920 Descending Washington Center
10:38AM 37.8878 -77.6967 33° Northeast 320 368 11,000 -1,440 Descending Washington Center
10:39AM 37.9556 -77.6356 35° Northeast 309 356 10,000 -540 Descending Washington Center
10:40AM 38.0256 -77.5767 34° Northeast 304 350 10,000  Level Washington Center
10:41AM 38.0889 -77.5283 31° Northeast 304 350 10,000  Level Washington Center
10:42AM 38.1586 -77.4667 35° Northeast 304 350 10,000  Level Washington Center
10:43AM 38.2303 -77.4156 29° Northeast 299 344 10,000 -240 Level Washington Center
10:44AM 38.3053 -77.4147 360° North 273 314 9,600 -960 Descending Washington Center
10:45AM 38.3758 -77.4483 340° North 252 290 8,200 -1,680 Descending Washington Center
10:46AM 38.4531 -77.4475 360° North 257 296 6,300 -2,100 Descending Washington Center
10:47AM 38.5322 -77.4469 360° North 257 296 4,000 -1,680 Descending Washington Center
10:48AM 38.6053 -77.4461 North 251 289 3,000 -600 Descending Washington Center
10:49AM 38.6667 -77.4333 North 262 302 3,000  Level Potomac TRACON
10:50AM 38.7333 -77.4333 360° North 226 260 3,000 -120 Level Potomac TRACON
10:51AM 38.8000 -77.4333 360° North 202 232 2,800 -480 Descending Potomac TRACON
10:52AM 38.8333 -77.4333 360° North 183 211 2,100 -840 Descending Potomac TRACON
10:53AM 38.8833 -77.4333 360° North 150 173 1,200 -900 Descending Potomac TRACON